sensor_id;sensor_type;location;lat;lon;timestamp;P1;durP1;ratioP1;P2;durP2;ratioP2
7703;SDS011;3894;49.700;10.770;2023-09-08T00:01:17;7.57;;;2.80;;
7703;SDS011;3894;49.700;10.770;2023-09-08T00:03:50;7.43;;;3.40;;
7703;SDS011;3894;49.700;10.770;2023-09-08T00:06:18;9.80;;;3.13;;
7703;SDS011;3894;49.700;10.770;2023-09-08T00:08:49;6.28;;;3.03;;
7703;SDS011;3894;49.700;10.770;2023-09-08T00:11:17;7.07;;;3.15;;
7703;SDS011;3894;49.700;10.770;2023-09-08T00:13:54;8.38;;;3.65;;
7703;SDS011;3894;49.700;10.770;2023-09-08T00:16:30;8.70;;;3.47;;
7703;SDS011;3894;49.700;10.770;2023-09-08T00:18:58;6.28;;;2.78;;
7703;SDS011;3894;49.700;10.770;2023-09-08T00:21:25;7.25;;;3.10;;
7703;SDS011;3894;49.700;10.770;2023-09-08T00:23:53;7.43;;;2.95;;
7703;SDS011;3894;49.700;10.770;2023-09-08T00:26:29;8.18;;;3.08;;
7703;SDS011;3894;49.700;10.770;2023-09-08T00:28:57;7.30;;;3.05;;
7703;SDS011;3894;49.700;10.770;2023-09-08T00:31:23;6.55;;;3.22;;
7703;SDS011;3894;49.700;10.770;2023-09-08T00:33:59;6.88;;;3.08;;
7703;SDS011;3894;49.700;10.770;2023-09-08T00:36:28;10.48;;;3.08;;
7703;SDS011;3894;49.700;10.770;2023-09-08T00:38:56;6.72;;;3.30;;
7703;SDS011;3894;49.700;10.770;2023-09-08T00:41:22;6.47;;;2.88;;
7703;SDS011;3894;49.700;10.770;2023-09-08T00:43:59;6.13;;;2.78;;
7703;SDS011;3894;49.700;10.770;2023-09-08T00:46:28;7.65;;;2.95;;
7703;SDS011;3894;49.700;10.770;2023-09-08T00:48:56;6.63;;;2.53;;
7703;SDS011;3894;49.700;10.770;2023-09-08T00:51:28;6.68;;;3.08;;
7703;SDS011;3894;49.700;10.770;2023-09-08T00:53:53;5.97;;;2.50;;
7703;SDS011;3894;49.700;10.770;2023-09-08T00:56:19;6.53;;;3.13;;
7703;SDS011;3894;49.700;10.770;2023-09-08T00:58:49;6.72;;;3.47;;
7703;SDS011;3894;49.700;10.770;2023-09-08T01:01:15;8.00;;;3.25;;
7703;SDS011;3894;49.700;10.770;2023-09-08T01:03:42;6.90;;;3.10;;
7703;SDS011;3894;49.700;10.770;2023-09-08T01:06:08;6.55;;;2.83;;
7703;SDS011;3894;49.700;10.770;2023-09-08T01:08:40;8.45;;;3.65;;
7703;SDS011;3894;49.700;10.770;2023-09-08T01:11:12;5.70;;;2.70;;
7703;SDS011;3894;49.700;10.770;2023-09-08T01:13:43;6.82;;;3.42;;
7703;SDS011;3894;49.700;10.770;2023-09-08T01:16:09;6.25;;;2.75;;
7703;SDS011;3894;49.700;10.770;2023-09-08T01:18:46;6.47;;;3.15;;
7703;SDS011;3894;49.700;10.770;2023-09-08T01:27:13;6.38;;;2.80;;
7703;SDS011;3894;49.700;10.770;2023-09-08T01:29:50;6.72;;;2.63;;
7703;SDS011;3894;49.700;10.770;2023-09-08T01:32:26;7.28;;;3.08;;
7703;SDS011;3894;49.700;10.770;2023-09-08T01:34:53;7.22;;;2.80;;
7703;SDS011;3894;49.700;10.770;2023-09-08T01:37:22;6.55;;;2.88;;
7703;SDS011;3894;49.700;10.770;2023-09-08T01:39:51;7.45;;;2.95;;
7703;SDS011;3894;49.700;10.770;2023-09-08T01:42:20;8.98;;;3.28;;
7703;SDS011;3894;49.700;10.770;2023-09-08T01:44:48;5.97;;;2.90;;
7703;SDS011;3894;49.700;10.770;2023-09-08T01:47:15;6.03;;;2.50;;
7703;SDS011;3894;49.700;10.770;2023-09-08T01:49:41;7.32;;;2.75;;
7703;SDS011;3894;49.700;10.770;2023-09-08T01:52:07;7.15;;;2.67;;
7703;SDS011;3894;49.700;10.770;2023-09-08T01:54:35;5.57;;;2.50;;
7703;SDS011;3894;49.700;10.770;2023-09-08T01:57:01;6.95;;;2.95;;
7703;SDS011;3894;49.700;10.770;2023-09-08T01:59:30;6.40;;;2.90;;
7703;SDS011;3894;49.700;10.770;2023-09-08T02:01:56;7.43;;;2.70;;
7703;SDS011;3894;49.700;10.770;2023-09-08T02:04:24;6.63;;;2.95;;
7703;SDS011;3894;49.700;10.770;2023-09-08T02:06:50;5.90;;;2.72;;
7703;SDS011;3894;49.700;10.770;2023-09-08T02:09:16;7.97;;;2.97;;
7703;SDS011;3894;49.700;10.770;2023-09-08T02:11:44;6.75;;;2.97;;
7703;SDS011;3894;49.700;10.770;2023-09-08T02:14:10;6.68;;;3.10;;
7703;SDS011;3894;49.700;10.770;2023-09-08T02:16:36;9.93;;;3.45;;
7703;SDS011;3894;49.700;10.770;2023-09-08T02:19:04;6.07;;;3.22;;
7703;SDS011;3894;49.700;10.770;2023-09-08T02:21:36;7.13;;;3.22;;
7703;SDS011;3894;49.700;10.770;2023-09-08T02:24:04;6.38;;;3.33;;
7703;SDS011;3894;49.700;10.770;2023-09-08T02:26:33;10.48;;;3.67;;
7703;SDS011;3894;49.700;10.770;2023-09-08T02:29:01;8.63;;;3.45;;
7703;SDS011;3894;49.700;10.770;2023-09-08T02:31:33;7.05;;;3.67;;
7703;SDS011;3894;49.700;10.770;2023-09-08T02:34:01;7.20;;;3.03;;
7703;SDS011;3894;49.700;10.770;2023-09-08T02:36:28;8.20;;;3.35;;
7703;SDS011;3894;49.700;10.770;2023-09-08T02:38:59;7.88;;;3.38;;
7703;SDS011;3894;49.700;10.770;2023-09-08T02:41:24;7.13;;;3.30;;
7703;SDS011;3894;49.700;10.770;2023-09-08T02:43:59;7.68;;;2.95;;
7703;SDS011;3894;49.700;10.770;2023-09-08T02:46:25;8.15;;;3.42;;
7703;SDS011;3894;49.700;10.770;2023-09-08T02:48:51;7.20;;;3.50;;
7703;SDS011;3894;49.700;10.770;2023-09-08T02:51:19;8.85;;;3.80;;
7703;SDS011;3894;49.700;10.770;2023-09-08T02:53:44;7.80;;;3.53;;
7703;SDS011;3894;49.700;10.770;2023-09-08T02:56:10;6.38;;;3.10;;
7703;SDS011;3894;49.700;10.770;2023-09-08T02:58:35;6.28;;;3.30;;
7703;SDS011;3894;49.700;10.770;2023-09-08T03:01:12;6.65;;;2.92;;
7703;SDS011;3894;49.700;10.770;2023-09-08T03:03:40;6.75;;;2.92;;
7703;SDS011;3894;49.700;10.770;2023-09-08T03:06:08;7.57;;;3.00;;
7703;SDS011;3894;49.700;10.770;2023-09-08T03:08:38;8.85;;;3.20;;
7703;SDS011;3894;49.700;10.770;2023-09-08T03:11:04;11.15;;;4.57;;
7703;SDS011;3894;49.700;10.770;2023-09-08T03:13:35;6.55;;;3.17;;
7703;SDS011;3894;49.700;10.770;2023-09-08T03:16:07;6.95;;;3.58;;
7703;SDS011;3894;49.700;10.770;2023-09-08T03:18:36;7.35;;;3.13;;
7703;SDS011;3894;49.700;10.770;2023-09-08T03:21:03;7.82;;;3.47;;
7703;SDS011;3894;49.700;10.770;2023-09-08T03:23:39;7.13;;;3.22;;
7703;SDS011;3894;49.700;10.770;2023-09-08T03:26:09;8.13;;;3.75;;
7703;SDS011;3894;49.700;10.770;2023-09-08T03:28:38;7.07;;;3.08;;
7703;SDS011;3894;49.700;10.770;2023-09-08T03:31:10;7.82;;;3.50;;
7703;SDS011;3894;49.700;10.770;2023-09-08T03:33:35;7.88;;;3.70;;
7703;SDS011;3894;49.700;10.770;2023-09-08T03:36:09;10.95;;;4.00;;
7703;SDS011;3894;49.700;10.770;2023-09-08T03:38:37;7.22;;;3.33;;
7703;SDS011;3894;49.700;10.770;2023-09-08T03:41:03;7.35;;;3.65;;
7703;SDS011;3894;49.700;10.770;2023-09-08T03:43:34;6.68;;;3.55;;
7703;SDS011;3894;49.700;10.770;2023-09-08T03:46:04;7.93;;;3.45;;
7703;SDS011;3894;49.700;10.770;2023-09-08T03:48:36;7.40;;;3.58;;
7703;SDS011;3894;49.700;10.770;2023-09-08T03:51:09;7.40;;;3.40;;
7703;SDS011;3894;49.700;10.770;2023-09-08T03:53:35;7.75;;;3.20;;
7703;SDS011;3894;49.700;10.770;2023-09-08T03:56:06;5.93;;;2.85;;
7703;SDS011;3894;49.700;10.770;2023-09-08T03:58:34;8.05;;;3.40;;
7703;SDS011;3894;49.700;10.770;2023-09-08T04:01:02;8.52;;;2.97;;
7703;SDS011;3894;49.700;10.770;2023-09-08T04:03:47;6.82;;;2.70;;
7703;SDS011;3894;49.700;10.770;2023-09-08T04:06:13;6.25;;;3.05;;
7703;SDS011;3894;49.700;10.770;2023-09-08T04:08:39;6.88;;;3.17;;
7703;SDS011;3894;49.700;10.770;2023-09-08T04:11:04;5.53;;;2.83;;
7703;SDS011;3894;49.700;10.770;2023-09-08T04:13:30;8.80;;;3.25;;
7703;SDS011;3894;49.700;10.770;2023-09-08T04:16:01;7.97;;;3.33;;
7703;SDS011;3894;49.700;10.770;2023-09-08T04:18:27;7.13;;;3.10;;
7703;SDS011;3894;49.700;10.770;2023-09-08T04:20:52;8.38;;;3.33;;
7703;SDS011;3894;49.700;10.770;2023-09-08T04:23:20;6.10;;;2.70;;
7703;SDS011;3894;49.700;10.770;2023-09-08T04:25:49;7.25;;;2.95;;
7703;SDS011;3894;49.700;10.770;2023-09-08T04:28:14;6.72;;;2.90;;
7703;SDS011;3894;49.700;10.770;2023-09-08T04:30:42;6.65;;;3.67;;
7703;SDS011;3894;49.700;10.770;2023-09-08T04:33:13;7.47;;;3.05;;
7703;SDS011;3894;49.700;10.770;2023-09-08T04:35:41;6.53;;;3.40;;
7703;SDS011;3894;49.700;10.770;2023-09-08T04:38:13;6.82;;;2.97;;
7703;SDS011;3894;49.700;10.770;2023-09-08T04:40:42;6.10;;;2.88;;
7703;SDS011;3894;49.700;10.770;2023-09-08T04:43:12;6.78;;;2.95;;
7703;SDS011;3894;49.700;10.770;2023-09-08T04:45:40;6.13;;;2.90;;
7703;SDS011;3894;49.700;10.770;2023-09-08T04:48:18;7.20;;;3.13;;
7703;SDS011;3894;49.700;10.770;2023-09-08T04:50:43;6.30;;;3.00;;
7703;SDS011;3894;49.700;10.770;2023-09-08T04:53:25;7.82;;;3.20;;
7703;SDS011;3894;49.700;10.770;2023-09-08T04:56:01;5.95;;;2.67;;
7703;SDS011;3894;49.700;10.770;2023-09-08T04:58:33;6.35;;;3.03;;
7703;SDS011;3894;49.700;10.770;2023-09-08T05:01:04;7.18;;;3.47;;
7703;SDS011;3894;49.700;10.770;2023-09-08T05:03:32;6.75;;;3.08;;
7703;SDS011;3894;49.700;10.770;2023-09-08T05:05:58;7.45;;;3.72;;
7703;SDS011;3894;49.700;10.770;2023-09-08T05:08:27;7.05;;;3.05;;
7703;SDS011;3894;49.700;10.770;2023-09-08T05:10:53;8.23;;;3.33;;
7703;SDS011;3894;49.700;10.770;2023-09-08T05:13:23;7.60;;;3.75;;
7703;SDS011;3894;49.700;10.770;2023-09-08T05:15:51;8.50;;;3.50;;
7703;SDS011;3894;49.700;10.770;2023-09-08T05:18:24;7.40;;;3.20;;
7703;SDS011;3894;49.700;10.770;2023-09-08T05:21:01;7.57;;;3.28;;
7703;SDS011;3894;49.700;10.770;2023-09-08T05:23:27;7.32;;;2.72;;
7703;SDS011;3894;49.700;10.770;2023-09-08T05:25:53;7.68;;;2.65;;
7703;SDS011;3894;49.700;10.770;2023-09-08T05:28:21;6.72;;;2.67;;
7703;SDS011;3894;49.700;10.770;2023-09-08T05:30:47;7.10;;;3.15;;
7703;SDS011;3894;49.700;10.770;2023-09-08T05:33:18;6.35;;;3.13;;
7703;SDS011;3894;49.700;10.770;2023-09-08T05:35:45;6.15;;;2.95;;
7703;SDS011;3894;49.700;10.770;2023-09-08T05:38:14;7.65;;;3.30;;
7703;SDS011;3894;49.700;10.770;2023-09-08T05:40:39;9.80;;;3.65;;
7703;SDS011;3894;49.700;10.770;2023-09-08T05:43:05;8.85;;;3.42;;
7703;SDS011;3894;49.700;10.770;2023-09-08T05:45:36;8.07;;;3.83;;
7703;SDS011;3894;49.700;10.770;2023-09-08T05:48:01;7.70;;;2.85;;
7703;SDS011;3894;49.700;10.770;2023-09-08T05:50:27;7.40;;;2.80;;
7703;SDS011;3894;49.700;10.770;2023-09-08T05:52:53;7.95;;;3.35;;
7703;SDS011;3894;49.700;10.770;2023-09-08T05:55:26;6.95;;;3.15;;
7703;SDS011;3894;49.700;10.770;2023-09-08T05:57:55;6.75;;;2.63;;
7703;SDS011;3894;49.700;10.770;2023-09-08T06:00:20;6.60;;;3.20;;
7703;SDS011;3894;49.700;10.770;2023-09-08T06:02:50;6.20;;;2.97;;
7703;SDS011;3894;49.700;10.770;2023-09-08T06:05:18;7.07;;;3.30;;
7703;SDS011;3894;49.700;10.770;2023-09-08T06:07:44;6.63;;;2.72;;
7703;SDS011;3894;49.700;10.770;2023-09-08T06:10:10;7.82;;;3.55;;
7703;SDS011;3894;49.700;10.770;2023-09-08T06:12:41;7.97;;;3.30;;
7703;SDS011;3894;49.700;10.770;2023-09-08T06:15:08;7.22;;;3.05;;
7703;SDS011;3894;49.700;10.770;2023-09-08T06:17:34;6.28;;;3.03;;
7703;SDS011;3894;49.700;10.770;2023-09-08T06:20:02;9.98;;;3.15;;
7703;SDS011;3894;49.700;10.770;2023-09-08T06:22:28;9.93;;;3.60;;
7703;SDS011;3894;49.700;10.770;2023-09-08T06:24:54;6.75;;;2.80;;
7703;SDS011;3894;49.700;10.770;2023-09-08T06:27:22;6.85;;;3.08;;
7703;SDS011;3894;49.700;10.770;2023-09-08T06:29:48;6.70;;;2.75;;
7703;SDS011;3894;49.700;10.770;2023-09-08T06:32:13;8.57;;;3.10;;
7703;SDS011;3894;49.700;10.770;2023-09-08T06:34:39;6.80;;;3.03;;
7703;SDS011;3894;49.700;10.770;2023-09-08T06:37:08;9.63;;;3.63;;
7703;SDS011;3894;49.700;10.770;2023-09-08T06:39:42;8.80;;;3.58;;
7703;SDS011;3894;49.700;10.770;2023-09-08T06:42:09;7.13;;;3.88;;
7703;SDS011;3894;49.700;10.770;2023-09-08T06:44:37;8.07;;;4.00;;
7703;SDS011;3894;49.700;10.770;2023-09-08T06:47:06;9.07;;;4.57;;
7703;SDS011;3894;49.700;10.770;2023-09-08T06:49:34;9.45;;;4.30;;
7703;SDS011;3894;49.700;10.770;2023-09-08T06:52:02;7.07;;;3.47;;
7703;SDS011;3894;49.700;10.770;2023-09-08T06:54:28;8.32;;;4.70;;
7703;SDS011;3894;49.700;10.770;2023-09-08T06:56:53;10.32;;;4.18;;
7703;SDS011;3894;49.700;10.770;2023-09-08T06:59:19;8.38;;;4.40;;
7703;SDS011;3894;49.700;10.770;2023-09-08T07:01:45;10.30;;;4.90;;
7703;SDS011;3894;49.700;10.770;2023-09-08T07:04:10;9.60;;;4.30;;
7703;SDS011;3894;49.700;10.770;2023-09-08T07:06:38;8.65;;;4.35;;
7703;SDS011;3894;49.700;10.770;2023-09-08T07:09:06;9.27;;;4.15;;
7703;SDS011;3894;49.700;10.770;2023-09-08T07:11:33;7.25;;;4.20;;
7703;SDS011;3894;49.700;10.770;2023-09-08T07:14:05;7.45;;;3.80;;
7703;SDS011;3894;49.700;10.770;2023-09-08T07:16:34;7.97;;;3.72;;
7703;SDS011;3894;49.700;10.770;2023-09-08T07:19:02;7.88;;;3.40;;
7703;SDS011;3894;49.700;10.770;2023-09-08T07:21:27;7.90;;;3.90;;
7703;SDS011;3894;49.700;10.770;2023-09-08T07:23:53;9.00;;;4.10;;
7703;SDS011;3894;49.700;10.770;2023-09-08T07:26:19;7.80;;;3.92;;
7703;SDS011;3894;49.700;10.770;2023-09-08T07:28:48;7.43;;;3.65;;
7703;SDS011;3894;49.700;10.770;2023-09-08T07:31:14;7.07;;;3.45;;
7703;SDS011;3894;49.700;10.770;2023-09-08T07:33:47;6.45;;;3.42;;
7703;SDS011;3894;49.700;10.770;2023-09-08T07:36:16;8.20;;;4.10;;
7703;SDS011;3894;49.700;10.770;2023-09-08T07:38:42;7.35;;;4.28;;
7703;SDS011;3894;49.700;10.770;2023-09-08T07:41:07;7.65;;;3.53;;
7703;SDS011;3894;49.700;10.770;2023-09-08T07:43:33;7.82;;;3.85;;
7703;SDS011;3894;49.700;10.770;2023-09-08T07:45:59;8.43;;;4.30;;
7703;SDS011;3894;49.700;10.770;2023-09-08T07:48:28;7.57;;;3.80;;
7703;SDS011;3894;49.700;10.770;2023-09-08T07:50:54;7.55;;;3.83;;
7703;SDS011;3894;49.700;10.770;2023-09-08T07:53:26;8.40;;;3.70;;
7703;SDS011;3894;49.700;10.770;2023-09-08T07:55:57;8.90;;;3.42;;
7703;SDS011;3894;49.700;10.770;2023-09-08T07:58:23;7.95;;;3.20;;
7703;SDS011;3894;49.700;10.770;2023-09-08T08:00:49;9.35;;;4.07;;
7703;SDS011;3894;49.700;10.770;2023-09-08T08:03:15;7.97;;;3.75;;
7703;SDS011;3894;49.700;10.770;2023-09-08T08:05:42;7.90;;;3.85;;
7703;SDS011;3894;49.700;10.770;2023-09-08T08:08:10;6.68;;;3.50;;
7703;SDS011;3894;49.700;10.770;2023-09-08T08:10:36;6.40;;;3.25;;
7703;SDS011;3894;49.700;10.770;2023-09-08T08:13:09;7.38;;;3.58;;
7703;SDS011;3894;49.700;10.770;2023-09-08T08:15:40;6.70;;;3.00;;
7703;SDS011;3894;49.700;10.770;2023-09-08T08:18:14;7.22;;;3.10;;
7703;SDS011;3894;49.700;10.770;2023-09-08T08:20:40;6.90;;;3.67;;
7703;SDS011;3894;49.700;10.770;2023-09-08T08:23:06;7.57;;;3.40;;
7703;SDS011;3894;49.700;10.770;2023-09-08T08:25:34;7.63;;;3.05;;
7703;SDS011;3894;49.700;10.770;2023-09-08T08:28:00;8.80;;;4.07;;
7703;SDS011;3894;49.700;10.770;2023-09-08T08:30:26;7.60;;;3.67;;
7703;SDS011;3894;49.700;10.770;2023-09-08T08:32:54;11.60;;;3.72;;
7703;SDS011;3894;49.700;10.770;2023-09-08T08:35:22;7.80;;;3.33;;
7703;SDS011;3894;49.700;10.770;2023-09-08T08:37:51;7.28;;;3.33;;
7703;SDS011;3894;49.700;10.770;2023-09-08T08:40:17;6.63;;;3.40;;
7703;SDS011;3894;49.700;10.770;2023-09-08T08:42:45;11.07;;;3.53;;
7703;SDS011;3894;49.700;10.770;2023-09-08T08:45:11;7.28;;;3.15;;
7703;SDS011;3894;49.700;10.770;2023-09-08T08:47:37;6.05;;;3.13;;
7703;SDS011;3894;49.700;10.770;2023-09-08T08:50:12;7.07;;;3.15;;
7703;SDS011;3894;49.700;10.770;2023-09-08T08:52:38;7.40;;;3.70;;
7703;SDS011;3894;49.700;10.770;2023-09-08T08:55:05;7.15;;;2.95;;
7703;SDS011;3894;49.700;10.770;2023-09-08T08:57:31;8.98;;;3.42;;
7703;SDS011;3894;49.700;10.770;2023-09-08T08:59:57;7.15;;;3.08;;
7703;SDS011;3894;49.700;10.770;2023-09-08T09:02:32;6.78;;;3.17;;
7703;SDS011;3894;49.700;10.770;2023-09-08T09:05:03;7.10;;;3.00;;
7703;SDS011;3894;49.700;10.770;2023-09-08T09:07:36;6.60;;;3.20;;
7703;SDS011;3894;49.700;10.770;2023-09-08T09:10:02;6.63;;;3.10;;
7703;SDS011;3894;49.700;10.770;2023-09-08T09:12:39;6.75;;;3.22;;
7703;SDS011;3894;49.700;10.770;2023-09-08T09:15:07;6.25;;;2.80;;
7703;SDS011;3894;49.700;10.770;2023-09-08T09:17:36;6.50;;;3.00;;
7703;SDS011;3894;49.700;10.770;2023-09-08T09:22:45;7.30;;;3.13;;
7703;SDS011;3894;49.700;10.770;2023-09-08T09:27:54;6.68;;;3.40;;
7703;SDS011;3894;49.700;10.770;2023-09-08T09:30:24;8.98;;;3.65;;
7703;SDS011;3894;49.700;10.770;2023-09-08T09:33:03;7.30;;;3.38;;
7703;SDS011;3894;49.700;10.770;2023-09-08T09:35:44;6.72;;;3.40;;
7703;SDS011;3894;49.700;10.770;2023-09-08T09:38:16;5.88;;;3.05;;
7703;SDS011;3894;49.700;10.770;2023-09-08T09:40:43;6.55;;;3.15;;
7703;SDS011;3894;49.700;10.770;2023-09-08T09:43:12;7.07;;;3.13;;
7703;SDS011;3894;49.700;10.770;2023-09-08T09:45:48;5.93;;;2.53;;
7703;SDS011;3894;49.700;10.770;2023-09-08T09:48:13;7.97;;;3.53;;
7703;SDS011;3894;49.700;10.770;2023-09-08T09:50:47;6.15;;;3.15;;
7703;SDS011;3894;49.700;10.770;2023-09-08T09:53:13;6.47;;;2.95;;
7703;SDS011;3894;49.700;10.770;2023-09-08T09:55:43;6.63;;;3.13;;
7703;SDS011;3894;49.700;10.770;2023-09-08T09:58:10;6.10;;;3.28;;
7703;SDS011;3894;49.700;10.770;2023-09-08T10:00:43;6.35;;;3.08;;
7703;SDS011;3894;49.700;10.770;2023-09-08T10:03:13;6.20;;;3.50;;
7703;SDS011;3894;49.700;10.770;2023-09-08T10:05:42;6.07;;;2.95;;
7703;SDS011;3894;49.700;10.770;2023-09-08T10:08:18;6.32;;;2.90;;
7703;SDS011;3894;49.700;10.770;2023-09-08T10:10:44;8.18;;;3.03;;
7703;SDS011;3894;49.700;10.770;2023-09-08T10:13:13;6.63;;;3.17;;
7703;SDS011;3894;49.700;10.770;2023-09-08T10:15:48;7.57;;;3.80;;
7703;SDS011;3894;49.700;10.770;2023-09-08T10:18:18;6.97;;;3.05;;
7703;SDS011;3894;49.700;10.770;2023-09-08T10:20:48;7.75;;;2.92;;
7703;SDS011;3894;49.700;10.770;2023-09-08T10:23:23;5.72;;;3.05;;
7703;SDS011;3894;49.700;10.770;2023-09-08T10:25:59;6.85;;;2.85;;
7703;SDS011;3894;49.700;10.770;2023-09-08T10:28:33;6.47;;;3.00;;
7703;SDS011;3894;49.700;10.770;2023-09-08T10:31:05;6.47;;;2.70;;
7703;SDS011;3894;49.700;10.770;2023-09-08T10:33:34;6.85;;;3.20;;
7703;SDS011;3894;49.700;10.770;2023-09-08T10:36:03;7.30;;;3.33;;
7703;SDS011;3894;49.700;10.770;2023-09-08T10:38:36;6.13;;;2.88;;
7703;SDS011;3894;49.700;10.770;2023-09-08T10:43:40;7.65;;;3.05;;
7703;SDS011;3894;49.700;10.770;2023-09-08T10:46:12;6.40;;;2.83;;
7703;SDS011;3894;49.700;10.770;2023-09-08T10:48:47;5.68;;;2.60;;
7703;SDS011;3894;49.700;10.770;2023-09-08T10:51:17;6.45;;;3.33;;
7703;SDS011;3894;49.700;10.770;2023-09-08T10:53:46;6.45;;;2.55;;
7703;SDS011;3894;49.700;10.770;2023-09-08T10:56:17;6.80;;;2.80;;
7703;SDS011;3894;49.700;10.770;2023-09-08T10:58:43;5.85;;;3.08;;
7703;SDS011;3894;49.700;10.770;2023-09-08T11:01:18;6.50;;;2.65;;
7703;SDS011;3894;49.700;10.770;2023-09-08T11:03:51;8.52;;;3.17;;
7703;SDS011;3894;49.700;10.770;2023-09-08T11:06:21;6.60;;;2.90;;
7703;SDS011;3894;49.700;10.770;2023-09-08T11:08:55;5.57;;;2.88;;
7703;SDS011;3894;49.700;10.770;2023-09-08T11:11:26;6.82;;;2.90;;
7703;SDS011;3894;49.700;10.770;2023-09-08T11:13:58;7.63;;;2.70;;
7703;SDS011;3894;49.700;10.770;2023-09-08T11:16:24;6.32;;;2.72;;
7703;SDS011;3894;49.700;10.770;2023-09-08T11:18:54;5.38;;;2.50;;
7703;SDS011;3894;49.700;10.770;2023-09-08T11:21:20;7.00;;;2.83;;
7703;SDS011;3894;49.700;10.770;2023-09-08T11:23:46;6.30;;;2.88;;
7703;SDS011;3894;49.700;10.770;2023-09-08T11:26:29;4.93;;;2.22;;
7703;SDS011;3894;49.700;10.770;2023-09-08T11:29:01;5.72;;;2.90;;
7703;SDS011;3894;49.700;10.770;2023-09-08T11:31:31;5.97;;;2.42;;
7703;SDS011;3894;49.700;10.770;2023-09-08T11:34:12;6.82;;;2.20;;
7703;SDS011;3894;49.700;10.770;2023-09-08T11:36:41;5.60;;;2.40;;
7703;SDS011;3894;49.700;10.770;2023-09-08T11:39:10;5.97;;;2.45;;
7703;SDS011;3894;49.700;10.770;2023-09-08T11:41:36;6.35;;;2.50;;
7703;SDS011;3894;49.700;10.770;2023-09-08T11:44:07;6.82;;;2.80;;
7703;SDS011;3894;49.700;10.770;2023-09-08T11:49:14;5.22;;;2.40;;
7703;SDS011;3894;49.700;10.770;2023-09-08T11:51:45;5.32;;;2.33;;
7703;SDS011;3894;49.700;10.770;2023-09-08T11:54:14;6.28;;;3.10;;
7703;SDS011;3894;49.700;10.770;2023-09-08T11:56:42;5.43;;;2.63;;
7703;SDS011;3894;49.700;10.770;2023-09-08T11:59:10;6.25;;;2.72;;
7703;SDS011;3894;49.700;10.770;2023-09-08T12:01:38;6.07;;;2.63;;
7703;SDS011;3894;49.700;10.770;2023-09-08T12:04:19;5.30;;;2.63;;
7703;SDS011;3894;49.700;10.770;2023-09-08T12:06:53;5.25;;;2.55;;
7703;SDS011;3894;49.700;10.770;2023-09-08T12:09:23;5.28;;;2.50;;
7703;SDS011;3894;49.700;10.770;2023-09-08T12:11:48;5.68;;;2.95;;
7703;SDS011;3894;49.700;10.770;2023-09-08T12:14:25;5.68;;;3.03;;
7703;SDS011;3894;49.700;10.770;2023-09-08T12:17:06;5.97;;;2.85;;
7703;SDS011;3894;49.700;10.770;2023-09-08T12:19:32;8.27;;;2.63;;
7703;SDS011;3894;49.700;10.770;2023-09-08T12:22:07;6.20;;;2.17;;
7703;SDS011;3894;49.700;10.770;2023-09-08T12:24:48;5.65;;;2.53;;
7703;SDS011;3894;49.700;10.770;2023-09-08T12:27:24;6.53;;;2.97;;
7703;SDS011;3894;49.700;10.770;2023-09-08T12:29:56;7.38;;;2.67;;
7703;SDS011;3894;49.700;10.770;2023-09-08T12:32:29;5.85;;;2.67;;
7703;SDS011;3894;49.700;10.770;2023-09-08T12:34:58;5.60;;;2.33;;
7703;SDS011;3894;49.700;10.770;2023-09-08T12:37:26;5.07;;;2.10;;
7703;SDS011;3894;49.700;10.770;2023-09-08T12:39:55;5.78;;;2.58;;
7703;SDS011;3894;49.700;10.770;2023-09-08T12:42:30;5.72;;;2.40;;
7703;SDS011;3894;49.700;10.770;2023-09-08T12:45:04;4.95;;;2.30;;
7703;SDS011;3894;49.700;10.770;2023-09-08T12:47:39;6.25;;;2.42;;
7703;SDS011;3894;49.700;10.770;2023-09-08T12:50:05;6.25;;;2.50;;
7703;SDS011;3894;49.700;10.770;2023-09-08T12:52:31;5.82;;;2.63;;
7703;SDS011;3894;49.700;10.770;2023-09-08T12:54:57;6.15;;;2.30;;
7703;SDS011;3894;49.700;10.770;2023-09-08T12:57:22;6.35;;;2.70;;
7703;SDS011;3894;49.700;10.770;2023-09-08T12:59:51;11.25;;;2.65;;
7703;SDS011;3894;49.700;10.770;2023-09-08T13:02:26;4.80;;;2.00;;
7703;SDS011;3894;49.700;10.770;2023-09-08T13:04:53;5.60;;;2.30;;
7703;SDS011;3894;49.700;10.770;2023-09-08T13:09:52;6.03;;;2.40;;
7703;SDS011;3894;49.700;10.770;2023-09-08T13:12:18;5.00;;;2.10;;
7703;SDS011;3894;49.700;10.770;2023-09-08T13:17:20;4.78;;;2.10;;
7703;SDS011;3894;49.700;10.770;2023-09-08T13:19:47;7.32;;;2.45;;
7703;SDS011;3894;49.700;10.770;2023-09-08T13:22:19;5.30;;;2.50;;
7703;SDS011;3894;49.700;10.770;2023-09-08T13:24:48;6.63;;;2.25;;
7703;SDS011;3894;49.700;10.770;2023-09-08T13:27:14;4.82;;;1.95;;
7703;SDS011;3894;49.700;10.770;2023-09-08T13:29:43;4.85;;;2.05;;
7703;SDS011;3894;49.700;10.770;2023-09-08T13:32:20;6.60;;;2.17;;
7703;SDS011;3894;49.700;10.770;2023-09-08T13:34:47;4.93;;;2.08;;
7703;SDS011;3894;49.700;10.770;2023-09-08T13:37:15;5.25;;;2.00;;
7703;SDS011;3894;49.700;10.770;2023-09-08T13:39:48;4.68;;;2.10;;
7703;SDS011;3894;49.700;10.770;2023-09-08T13:42:16;5.30;;;2.35;;
7703;SDS011;3894;49.700;10.770;2023-09-08T13:44:44;6.13;;;2.40;;
7703;SDS011;3894;49.700;10.770;2023-09-08T13:47:15;5.82;;;2.03;;
7703;SDS011;3894;49.700;10.770;2023-09-08T13:49:40;6.18;;;2.53;;
7703;SDS011;3894;49.700;10.770;2023-09-08T13:52:09;4.97;;;2.30;;
7703;SDS011;3894;49.700;10.770;2023-09-08T13:54:37;5.40;;;2.13;;
7703;SDS011;3894;49.700;10.770;2023-09-08T13:57:08;5.63;;;2.63;;
7703;SDS011;3894;49.700;10.770;2023-09-08T13:59:36;5.75;;;2.42;;
7703;SDS011;3894;49.700;10.770;2023-09-08T14:02:02;5.45;;;2.15;;
7703;SDS011;3894;49.700;10.770;2023-09-08T14:04:30;6.50;;;2.30;;
7703;SDS011;3894;49.700;10.770;2023-09-08T14:06:56;5.10;;;2.38;;
7703;SDS011;3894;49.700;10.770;2023-09-08T14:09:22;5.13;;;2.38;;
7703;SDS011;3894;49.700;10.770;2023-09-08T14:11:51;5.55;;;2.13;;
7703;SDS011;3894;49.700;10.770;2023-09-08T14:14:16;5.10;;;2.33;;
7703;SDS011;3894;49.700;10.770;2023-09-08T14:16:42;5.70;;;2.50;;
7703;SDS011;3894;49.700;10.770;2023-09-08T14:19:19;5.85;;;2.55;;
7703;SDS011;3894;49.700;10.770;2023-09-08T14:21:45;4.68;;;2.13;;
7703;SDS011;3894;49.700;10.770;2023-09-08T14:24:11;5.40;;;2.33;;
7703;SDS011;3894;49.700;10.770;2023-09-08T14:26:39;5.07;;;2.38;;
7703;SDS011;3894;49.700;10.770;2023-09-08T14:29:07;5.57;;;2.30;;
7703;SDS011;3894;49.700;10.770;2023-09-08T14:31:32;6.28;;;2.20;;
7703;SDS011;3894;49.700;10.770;2023-09-08T14:33:59;6.13;;;2.28;;
7703;SDS011;3894;49.700;10.770;2023-09-08T14:36:30;6.10;;;2.38;;
7703;SDS011;3894;49.700;10.770;2023-09-08T14:38:56;5.55;;;2.38;;
7703;SDS011;3894;49.700;10.770;2023-09-08T14:41:22;5.28;;;2.30;;
7703;SDS011;3894;49.700;10.770;2023-09-08T14:43:50;6.63;;;3.03;;
7703;SDS011;3894;49.700;10.770;2023-09-08T14:46:27;5.50;;;2.35;;
7703;SDS011;3894;49.700;10.770;2023-09-08T14:48:53;5.30;;;2.13;;
7703;SDS011;3894;49.700;10.770;2023-09-08T14:51:25;6.95;;;2.67;;
7703;SDS011;3894;49.700;10.770;2023-09-08T14:53:52;5.60;;;2.30;;
7703;SDS011;3894;49.700;10.770;2023-09-08T14:56:18;6.88;;;2.70;;
7703;SDS011;3894;49.700;10.770;2023-09-08T14:58:46;6.10;;;2.40;;
7703;SDS011;3894;49.700;10.770;2023-09-08T15:01:20;6.88;;;2.97;;
7703;SDS011;3894;49.700;10.770;2023-09-08T15:03:49;7.03;;;2.97;;
7703;SDS011;3894;49.700;10.770;2023-09-08T15:06:19;5.40;;;2.40;;
7703;SDS011;3894;49.700;10.770;2023-09-08T15:08:45;6.03;;;2.92;;
7703;SDS011;3894;49.700;10.770;2023-09-08T15:11:11;5.95;;;2.00;;
7703;SDS011;3894;49.700;10.770;2023-09-08T15:13:37;6.60;;;2.00;;
7703;SDS011;3894;49.700;10.770;2023-09-08T15:16:03;5.60;;;2.53;;
7703;SDS011;3894;49.700;10.770;2023-09-08T15:18:30;7.00;;;3.25;;
7703;SDS011;3894;49.700;10.770;2023-09-08T15:20:56;5.05;;;2.00;;
7703;SDS011;3894;49.700;10.770;2023-09-08T15:23:25;5.18;;;2.13;;
7703;SDS011;3894;49.700;10.770;2023-09-08T15:25:55;5.00;;;2.22;;
7703;SDS011;3894;49.700;10.770;2023-09-08T15:28:25;5.40;;;2.00;;
7703;SDS011;3894;49.700;10.770;2023-09-08T15:30:51;5.45;;;2.47;;
7703;SDS011;3894;49.700;10.770;2023-09-08T15:33:18;5.20;;;2.15;;